sensor_id;sensor_type;location;lat;lon;timestamp;temperature;humidity
31046;DHT22;17711;54.018;9.300;2022-10-17T00:01:58;11.80;99.90
31046;DHT22;17711;54.018;9.300;2022-10-17T00:04:27;11.80;99.90
31046;DHT22;17711;54.018;9.300;2022-10-17T00:06:56;11.70;99.90
31046;DHT22;17711;54.018;9.300;2022-10-17T00:09:33;11.70;99.90
31046;DHT22;17711;54.018;9.300;2022-10-17T00:12:04;11.80;99.90
31046;DHT22;17711;54.018;9.300;2022-10-17T00:14:38;11.70;99.90
31046;DHT22;17711;54.018;9.300;2022-10-17T00:17:07;11.80;99.90
31046;DHT22;17711;54.018;9.300;2022-10-17T00:19:37;11.90;99.90
31046;DHT22;17711;54.018;9.300;2022-10-17T00:22:08;11.90;99.90
31046;DHT22;17711;54.018;9.300;2022-10-17T00:24:43;12.00;99.90
31046;DHT22;17711;54.018;9.300;2022-10-17T00:27:12;12.00;99.90
31046;DHT22;17711;54.018;9.300;2022-10-17T00:29:47;12.10;99.90
31046;DHT22;17711;54.018;9.300;2022-10-17T00:32:19;12.10;99.90
31046;DHT22;17711;54.018;9.300;2022-10-17T00:34:53;12.10;99.90
31046;DHT22;17711;54.018;9.300;2022-10-17T00:37:22;12.00;99.90
31046;DHT22;17711;54.018;9.300;2022-10-17T00:39:58;12.00;99.90
31046;DHT22;17711;54.018;9.300;2022-10-17T00:42:29;12.00;99.90
31046;DHT22;17711;54.018;9.300;2022-10-17T00:45:07;12.10;99.90
31046;DHT22;17711;54.018;9.300;2022-10-17T00:47:41;12.10;99.90
31046;DHT22;17711;54.018;9.300;2022-10-17T00:50:15;12.10;99.90
31046;DHT22;17711;54.018;9.300;2022-10-17T00:52:46;12.10;99.90
31046;DHT22;17711;54.018;9.300;2022-10-17T00:55:24;12.10;99.90
31046;DHT22;17711;54.018;9.300;2022-10-17T00:57:59;12.20;99.90
31046;DHT22;17711;54.018;9.300;2022-10-17T01:00:33;12.20;99.90
31046;DHT22;17711;54.018;9.300;2022-10-17T01:03:05;12.20;99.90
31046;DHT22;17711;54.018;9.300;2022-10-17T01:05:36;12.30;99.90
31046;DHT22;17711;54.018;9.300;2022-10-17T01:08:08;12.30;99.90
31046;DHT22;17711;54.018;9.300;2022-10-17T01:10:50;12.30;99.90
31046;DHT22;17711;54.018;9.300;2022-10-17T01:13:27;12.30;99.90
31046;DHT22;17711;54.018;9.300;2022-10-17T01:16:07;12.40;99.90
31046;DHT22;17711;54.018;9.300;2022-10-17T01:18:50;12.40;99.90
31046;DHT22;17711;54.018;9.300;2022-10-17T01:21:30;12.40;99.90
31046;DHT22;17711;54.018;9.300;2022-10-17T01:30:45;12.50;99.90
31046;DHT22;17711;54.018;9.300;2022-10-17T01:33:22;12.50;99.90
31046;DHT22;17711;54.018;9.300;2022-10-17T01:35:59;12.40;99.90
31046;DHT22;17711;54.018;9.300;2022-10-17T01:38:34;12.40;99.90
31046;DHT22;17711;54.018;9.300;2022-10-17T01:41:08;12.40;99.90
31046;DHT22;17711;54.018;9.300;2022-10-17T01:43:48;12.40;99.90
31046;DHT22;17711;54.018;9.300;2022-10-17T01:46:29;12.40;99.90
31046;DHT22;17711;54.018;9.300;2022-10-17T01:49:02;12.40;99.90
31046;DHT22;17711;54.018;9.300;2022-10-17T01:51:37;12.40;99.90
31046;DHT22;17711;54.018;9.300;2022-10-17T01:54:12;12.40;99.90
31046;DHT22;17711;54.018;9.300;2022-10-17T01:56:42;12.40;99.90
31046;DHT22;17711;54.018;9.300;2022-10-17T01:59:19;12.50;99.90
31046;DHT22;17711;54.018;9.300;2022-10-17T02:01:52;12.50;99.90
31046;DHT22;17711;54.018;9.300;2022-10-17T02:04:24;12.50;99.90
31046;DHT22;17711;54.018;9.300;2022-10-17T02:06:53;12.50;99.90
31046;DHT22;17711;54.018;9.300;2022-10-17T02:09:26;12.50;99.90
31046;DHT22;17711;54.018;9.300;2022-10-17T02:12:09;12.50;99.90
31046;DHT22;17711;54.018;9.300;2022-10-17T02:14:54;12.50;99.90
31046;DHT22;17711;54.018;9.300;2022-10-17T02:17:35;12.50;99.90
31046;DHT22;17711;54.018;9.300;2022-10-17T02:20:13;12.50;99.90
31046;DHT22;17711;54.018;9.300;2022-10-17T02:22:50;12.50;99.90
31046;DHT22;17711;54.018;9.300;2022-10-17T02:25:32;12.50;99.90
31046;DHT22;17711;54.018;9.300;2022-10-17T02:28:15;12.50;99.90
31046;DHT22;17711;54.018;9.300;2022-10-17T02:30:52;12.60;99.90
31046;DHT22;17711;54.018;9.300;2022-10-17T02:33:28;12.60;99.90
31046;DHT22;17711;54.018;9.300;2022-10-17T02:36:03;12.60;99.90
31046;DHT22;17711;54.018;9.300;2022-10-17T02:38:34;12.60;99.90
31046;DHT22;17711;54.018;9.300;2022-10-17T02:41:04;12.70;99.90
31046;DHT22;17711;54.018;9.300;2022-10-17T02:43:36;12.70;99.90
31046;DHT22;17711;54.018;9.300;2022-10-17T02:46:15;12.70;99.90
31046;DHT22;17711;54.018;9.300;2022-10-17T02:48:55;12.70;99.90
31046;DHT22;17711;54.018;9.300;2022-10-17T02:51:35;12.70;99.90
31046;DHT22;17711;54.018;9.300;2022-10-17T02:54:14;12.70;99.90
31046;DHT22;17711;54.018;9.300;2022-10-17T02:56:50;12.60;99.90
31046;DHT22;17711;54.018;9.300;2022-10-17T02:59:25;12.60;99.90
31046;DHT22;17711;54.018;9.300;2022-10-17T03:02:02;12.50;99.90
31046;DHT22;17711;54.018;9.300;2022-10-17T03:04:34;12.60;99.90
31046;DHT22;17711;54.018;9.300;2022-10-17T03:07:05;12.60;99.90
31046;DHT22;17711;54.018;9.300;2022-10-17T03:09:35;12.60;99.90
31046;DHT22;17711;54.018;9.300;2022-10-17T03:12:06;12.60;99.90
31046;DHT22;17711;54.018;9.300;2022-10-17T03:14:35;12.60;99.90
31046;DHT22;17711;54.018;9.300;2022-10-17T03:17:05;12.60;99.90
31046;DHT22;17711;54.018;9.300;2022-10-17T03:19:40;12.60;99.90
31046;DHT22;17711;54.018;9.300;2022-10-17T03:22:10;12.60;99.90
31046;DHT22;17711;54.018;9.300;2022-10-17T03:24:41;12.60;99.90
31046;DHT22;17711;54.018;9.300;2022-10-17T03:27:10;12.50;99.90
31046;DHT22;17711;54.018;9.300;2022-10-17T03:29:44;12.50;99.90
31046;DHT22;17711;54.018;9.300;2022-10-17T03:32:12;12.50;99.90
31046;DHT22;17711;54.018;9.300;2022-10-17T03:34:47;12.40;99.90
31046;DHT22;17711;54.018;9.300;2022-10-17T03:37:17;12.40;99.90
31046;DHT22;17711;54.018;9.300;2022-10-17T03:39:46;12.40;99.90
31046;DHT22;17711;54.018;9.300;2022-10-17T03:42:16;12.30;99.90
31046;DHT22;17711;54.018;9.300;2022-10-17T03:44:48;12.30;99.90
31046;DHT22;17711;54.018;9.300;2022-10-17T03:47:20;12.20;99.90
31046;DHT22;17711;54.018;9.300;2022-10-17T03:49:56;12.30;99.90
31046;DHT22;17711;54.018;9.300;2022-10-17T03:52:26;12.30;99.90
31046;DHT22;17711;54.018;9.300;2022-10-17T03:54:55;12.30;99.90
31046;DHT22;17711;54.018;9.300;2022-10-17T03:57:26;12.30;99.90
31046;DHT22;17711;54.018;9.300;2022-10-17T03:59:56;12.40;99.90
31046;DHT22;17711;54.018;9.300;2022-10-17T04:02:26;12.40;99.90
31046;DHT22;17711;54.018;9.300;2022-10-17T04:04:59;12.50;99.90
31046;DHT22;17711;54.018;9.300;2022-10-17T04:07:32;12.50;99.90
31046;DHT22;17711;54.018;9.300;2022-10-17T04:10:04;12.50;99.90
31046;DHT22;17711;54.018;9.300;2022-10-17T04:12:34;12.60;99.90
31046;DHT22;17711;54.018;9.300;2022-10-17T04:15:06;12.60;99.90
31046;DHT22;17711;54.018;9.300;2022-10-17T04:17:35;12.60;99.90
31046;DHT22;17711;54.018;9.300;2022-10-17T04:20:08;12.60;99.90
31046;DHT22;17711;54.018;9.300;2022-10-17T04:22:37;12.60;99.90
31046;DHT22;17711;54.018;9.300;2022-10-17T04:25:14;12.60;99.90
31046;DHT22;17711;54.018;9.300;2022-10-17T04:27:43;12.60;99.90
31046;DHT22;17711;54.018;9.300;2022-10-17T04:30:16;12.60;99.90
31046;DHT22;17711;54.018;9.300;2022-10-17T04:32:47;12.60;99.90
31046;DHT22;17711;54.018;9.300;2022-10-17T04:35:26;12.60;99.90
31046;DHT22;17711;54.018;9.300;2022-10-17T04:37:55;12.50;99.90
31046;DHT22;17711;54.018;9.300;2022-10-17T04:40:27;12.50;99.90
31046;DHT22;17711;54.018;9.300;2022-10-17T04:42:56;12.50;99.90
31046;DHT22;17711;54.018;9.300;2022-10-17T04:45:27;12.40;99.90
31046;DHT22;17711;54.018;9.300;2022-10-17T04:47:56;12.30;99.90
31046;DHT22;17711;54.018;9.300;2022-10-17T04:50:31;12.30;99.90
31046;DHT22;17711;54.018;9.300;2022-10-17T04:53:00;12.20;99.90
31046;DHT22;17711;54.018;9.300;2022-10-17T04:55:36;12.20;99.90
31046;DHT22;17711;54.018;9.300;2022-10-17T04:58:06;12.10;99.90
31046;DHT22;17711;54.018;9.300;2022-10-17T05:00:36;12.10;99.90
31046;DHT22;17711;54.018;9.300;2022-10-17T05:03:05;12.10;99.90
31046;DHT22;17711;54.018;9.300;2022-10-17T05:05:38;12.00;99.90
31046;DHT22;17711;54.018;9.300;2022-10-17T05:08:08;12.00;99.90
31046;DHT22;17711;54.018;9.300;2022-10-17T05:10:41;12.00;99.90
31046;DHT22;17711;54.018;9.300;2022-10-17T05:13:10;12.00;99.90
31046;DHT22;17711;54.018;9.300;2022-10-17T05:15:40;12.10;99.90
31046;DHT22;17711;54.018;9.300;2022-10-17T05:18:11;12.00;99.90
31046;DHT22;17711;54.018;9.300;2022-10-17T05:20:43;12.00;99.90
31046;DHT22;17711;54.018;9.300;2022-10-17T05:23:14;12.00;99.90
31046;DHT22;17711;54.018;9.300;2022-10-17T05:25:45;12.00;99.90
31046;DHT22;17711;54.018;9.300;2022-10-17T05:28:15;12.00;99.90
31046;DHT22;17711;54.018;9.300;2022-10-17T05:31:02;11.90;99.90
31046;DHT22;17711;54.018;9.300;2022-10-17T05:33:33;11.90;99.90
31046;DHT22;17711;54.018;9.300;2022-10-17T05:36:06;11.90;99.90
31046;DHT22;17711;54.018;9.300;2022-10-17T05:38:36;11.90;99.90
31046;DHT22;17711;54.018;9.300;2022-10-17T05:41:06;11.80;99.90
31046;DHT22;17711;54.018;9.300;2022-10-17T05:43:35;11.80;99.90
31046;DHT22;17711;54.018;9.300;2022-10-17T05:46:06;11.80;99.90
31046;DHT22;17711;54.018;9.300;2022-10-17T05:48:37;11.80;99.90
31046;DHT22;17711;54.018;9.300;2022-10-17T05:51:11;11.80;99.90
31046;DHT22;17711;54.018;9.300;2022-10-17T05:53:41;11.80;99.90
31046;DHT22;17711;54.018;9.300;2022-10-17T05:56:11;11.80;99.90
31046;DHT22;17711;54.018;9.300;2022-10-17T05:58:42;11.80;99.90
31046;DHT22;17711;54.018;9.300;2022-10-17T06:01:18;11.80;99.90
31046;DHT22;17711;54.018;9.300;2022-10-17T06:03:47;11.80;99.90
31046;DHT22;17711;54.018;9.300;2022-10-17T06:06:18;11.80;99.90
31046;DHT22;17711;54.018;9.300;2022-10-17T06:08:49;11.80;99.90
31046;DHT22;17711;54.018;9.300;2022-10-17T06:11:19;11.90;99.90
31046;DHT22;17711;54.018;9.300;2022-10-17T06:13:55;11.90;99.90
31046;DHT22;17711;54.018;9.300;2022-10-17T06:16:24;11.90;99.90
31046;DHT22;17711;54.018;9.300;2022-10-17T06:18:54;12.00;99.90
31046;DHT22;17711;54.018;9.300;2022-10-17T06:21:29;11.90;99.90
31046;DHT22;17711;54.018;9.300;2022-10-17T06:24:01;11.90;99.90
31046;DHT22;17711;54.018;9.300;2022-10-17T06:26:31;12.00;99.90
31046;DHT22;17711;54.018;9.300;2022-10-17T06:29:14;12.00;99.90
31046;DHT22;17711;54.018;9.300;2022-10-17T06:31:44;12.10;99.90
31046;DHT22;17711;54.018;9.300;2022-10-17T06:34:13;12.10;99.90
31046;DHT22;17711;54.018;9.300;2022-10-17T06:36:44;12.10;99.90
31046;DHT22;17711;54.018;9.300;2022-10-17T06:39:14;12.20;99.90
31046;DHT22;17711;54.018;9.300;2022-10-17T06:41:46;12.20;99.90
31046;DHT22;17711;54.018;9.300;2022-10-17T06:44:18;12.30;99.90
31046;DHT22;17711;54.018;9.300;2022-10-17T06:46:48;12.30;99.90
31046;DHT22;17711;54.018;9.300;2022-10-17T06:49:18;12.40;99.90
31046;DHT22;17711;54.018;9.300;2022-10-17T06:51:49;12.50;99.90
31046;DHT22;17711;54.018;9.300;2022-10-17T06:54:19;12.50;99.90
31046;DHT22;17711;54.018;9.300;2022-10-17T06:56:48;12.60;99.90
31046;DHT22;17711;54.018;9.300;2022-10-17T06:59:17;12.70;99.90
31046;DHT22;17711;54.018;9.300;2022-10-17T07:01:47;12.70;99.90
31046;DHT22;17711;54.018;9.300;2022-10-17T07:04:16;12.80;99.90
31046;DHT22;17711;54.018;9.300;2022-10-17T07:06:48;13.00;99.90
31046;DHT22;17711;54.018;9.300;2022-10-17T07:09:19;13.00;99.90
31046;DHT22;17711;54.018;9.300;2022-10-17T07:11:50;13.10;99.90
31046;DHT22;17711;54.018;9.300;2022-10-17T07:14:20;13.10;99.90
31046;DHT22;17711;54.018;9.300;2022-10-17T07:16:49;13.20;99.90
31046;DHT22;17711;54.018;9.300;2022-10-17T07:19:20;13.30;99.90
31046;DHT22;17711;54.018;9.300;2022-10-17T07:21:53;13.40;99.90
31046;DHT22;17711;54.018;9.300;2022-10-17T07:24:22;13.50;99.90
31046;DHT22;17711;54.018;9.300;2022-10-17T07:26:53;13.70;99.90
31046;DHT22;17711;54.018;9.300;2022-10-17T07:29:24;13.90;99.90
31046;DHT22;17711;54.018;9.300;2022-10-17T07:31:57;14.00;99.90
31046;DHT22;17711;54.018;9.300;2022-10-17T07:34:27;14.10;99.90
31046;DHT22;17711;54.018;9.300;2022-10-17T07:37:00;14.30;99.90
31046;DHT22;17711;54.018;9.300;2022-10-17T07:39:29;14.50;99.90
31046;DHT22;17711;54.018;9.300;2022-10-17T07:41:59;14.60;99.90
31046;DHT22;17711;54.018;9.300;2022-10-17T07:44:29;14.80;99.90
31046;DHT22;17711;54.018;9.300;2022-10-17T07:46:59;14.90;99.90
31046;DHT22;17711;54.018;9.300;2022-10-17T07:49:30;15.10;99.90
31046;DHT22;17711;54.018;9.300;2022-10-17T07:52:02;15.20;99.90
31046;DHT22;17711;54.018;9.300;2022-10-17T07:54:31;15.50;99.90
31046;DHT22;17711;54.018;9.300;2022-10-17T07:57:00;15.70;99.90
31046;DHT22;17711;54.018;9.300;2022-10-17T07:59:33;15.80;99.90
31046;DHT22;17711;54.018;9.300;2022-10-17T08:02:02;15.80;99.90
31046;DHT22;17711;54.018;9.300;2022-10-17T08:04:33;15.70;99.90
31046;DHT22;17711;54.018;9.300;2022-10-17T08:07:05;15.80;99.90
31046;DHT22;17711;54.018;9.300;2022-10-17T08:09:47;15.80;99.90
31046;DHT22;17711;54.018;9.300;2022-10-17T08:12:19;15.80;99.90
31046;DHT22;17711;54.018;9.300;2022-10-17T08:14:48;15.70;99.90
31046;DHT22;17711;54.018;9.300;2022-10-17T08:17:17;15.60;99.90
31046;DHT22;17711;54.018;9.300;2022-10-17T08:19:47;15.60;99.90
31046;DHT22;17711;54.018;9.300;2022-10-17T08:22:32;15.60;99.90
31046;DHT22;17711;54.018;9.300;2022-10-17T08:25:04;15.60;99.90
31046;DHT22;17711;54.018;9.300;2022-10-17T08:27:36;15.60;99.90
31046;DHT22;17711;54.018;9.300;2022-10-17T08:30:10;15.70;99.90
31046;DHT22;17711;54.018;9.300;2022-10-17T08:32:39;15.70;99.90
31046;DHT22;17711;54.018;9.300;2022-10-17T08:35:12;15.80;99.90
31046;DHT22;17711;54.018;9.300;2022-10-17T08:37:44;15.90;99.90
31046;DHT22;17711;54.018;9.300;2022-10-17T08:40:18;16.00;99.90
31046;DHT22;17711;54.018;9.300;2022-10-17T08:43:07;16.10;99.90
31046;DHT22;17711;54.018;9.300;2022-10-17T08:46:05;16.30;99.90
31046;DHT22;17711;54.018;9.300;2022-10-17T08:48:38;16.70;99.90
31046;DHT22;17711;54.018;9.300;2022-10-17T08:51:17;17.10;99.90
31046;DHT22;17711;54.018;9.300;2022-10-17T08:53:57;17.50;99.90
31046;DHT22;17711;54.018;9.300;2022-10-17T08:56:32;17.60;99.90
31046;DHT22;17711;54.018;9.300;2022-10-17T08:59:25;17.80;99.90
31046;DHT22;17711;54.018;9.300;2022-10-17T09:02:02;17.90;99.90
31046;DHT22;17711;54.018;9.300;2022-10-17T09:08:03;18.30;99.90
31046;DHT22;17711;54.018;9.300;2022-10-17T09:10:46;18.30;99.90
31046;DHT22;17711;54.018;9.300;2022-10-17T09:13:37;18.40;99.90
31046;DHT22;17711;54.018;9.300;2022-10-17T09:19:18;18.60;99.90
31046;DHT22;17711;54.018;9.300;2022-10-17T09:21:52;18.60;99.90
31046;DHT22;17711;54.018;9.300;2022-10-17T09:24:32;18.70;99.90
31046;DHT22;17711;54.018;9.300;2022-10-17T09:27:08;18.80;99.90
31046;DHT22;17711;54.018;9.300;2022-10-17T09:29:42;18.90;99.90
31046;DHT22;17711;54.018;9.300;2022-10-17T09:32:18;19.10;99.90
31046;DHT22;17711;54.018;9.300;2022-10-17T09:34:51;19.20;99.90
31046;DHT22;17711;54.018;9.300;2022-10-17T09:37:29;19.40;99.90
31046;DHT22;17711;54.018;9.300;2022-10-17T09:40:00;19.50;99.90
31046;DHT22;17711;54.018;9.300;2022-10-17T09:42:34;19.80;99.90
31046;DHT22;17711;54.018;9.300;2022-10-17T09:45:17;20.10;99.90
31046;DHT22;17711;54.018;9.300;2022-10-17T09:47:59;20.40;99.90
31046;DHT22;17711;54.018;9.300;2022-10-17T09:50:33;20.50;99.90
31046;DHT22;17711;54.018;9.300;2022-10-17T09:53:09;20.60;99.90
31046;DHT22;17711;54.018;9.300;2022-10-17T09:55:46;20.60;99.90
31046;DHT22;17711;54.018;9.300;2022-10-17T09:58:20;20.70;99.90
31046;DHT22;17711;54.018;9.300;2022-10-17T10:00:50;20.80;99.90
31046;DHT22;17711;54.018;9.300;2022-10-17T10:03:21;20.90;99.90
31046;DHT22;17711;54.018;9.300;2022-10-17T10:06:03;21.10;99.90
31046;DHT22;17711;54.018;9.300;2022-10-17T10:08:35;21.10;99.90
31046;DHT22;17711;54.018;9.300;2022-10-17T10:11:07;21.40;99.90
31046;DHT22;17711;54.018;9.300;2022-10-17T10:13:42;21.90;99.90
31046;DHT22;17711;54.018;9.300;2022-10-17T10:16:19;22.50;99.90
31046;DHT22;17711;54.018;9.300;2022-10-17T10:18:51;23.00;99.90
31046;DHT22;17711;54.018;9.300;2022-10-17T10:21:23;23.10;99.90
31046;DHT22;17711;54.018;9.300;2022-10-17T10:24:11;22.90;99.90
31046;DHT22;17711;54.018;9.300;2022-10-17T10:26:45;22.80;99.90
31046;DHT22;17711;54.018;9.300;2022-10-17T10:29:27;22.60;99.90
31046;DHT22;17711;54.018;9.300;2022-10-17T10:32:10;22.30;99.90
31046;DHT22;17711;54.018;9.300;2022-10-17T10:34:48;22.00;99.90
31046;DHT22;17711;54.018;9.300;2022-10-17T10:37:21;22.00;99.90
31046;DHT22;17711;54.018;9.300;2022-10-17T10:39:53;21.70;99.90
31046;DHT22;17711;54.018;9.300;2022-10-17T10:42:28;21.50;99.90
31046;DHT22;17711;54.018;9.300;2022-10-17T10:45:16;21.40;99.90
31046;DHT22;17711;54.018;9.300;2022-10-17T10:48:20;21.00;99.90
31046;DHT22;17711;54.018;9.300;2022-10-17T10:50:54;20.80;99.90
31046;DHT22;17711;54.018;9.300;2022-10-17T10:53:31;20.60;99.90
31046;DHT22;17711;54.018;9.300;2022-10-17T10:56:07;20.40;99.90
31046;DHT22;17711;54.018;9.300;2022-10-17T10:58:52;20.30;99.90
31046;DHT22;17711;54.018;9.300;2022-10-17T11:01:29;20.20;99.90
31046;DHT22;17711;54.018;9.300;2022-10-17T11:04:12;20.20;99.90
31046;DHT22;17711;54.018;9.300;2022-10-17T11:06:51;20.10;99.90
31046;DHT22;17711;54.018;9.300;2022-10-17T11:09:44;20.00;99.90
31046;DHT22;17711;54.018;9.300;2022-10-17T11:12:21;19.90;99.90
31046;DHT22;17711;54.018;9.300;2022-10-17T11:14:56;19.80;99.90
31046;DHT22;17711;54.018;9.300;2022-10-17T11:17:35;19.80;99.90
31046;DHT22;17711;54.018;9.300;2022-10-17T11:20:16;19.80;99.90
31046;DHT22;17711;54.018;9.300;2022-10-17T11:22:54;19.80;99.90
31046;DHT22;17711;54.018;9.300;2022-10-17T11:25:37;19.80;99.90
31046;DHT22;17711;54.018;9.300;2022-10-17T11:28:14;19.70;99.90
31046;DHT22;17711;54.018;9.300;2022-10-17T11:30:49;19.60;99.90
31046;DHT22;17711;54.018;9.300;2022-10-17T11:33:27;19.60;99.90
31046;DHT22;17711;54.018;9.300;2022-10-17T11:36:04;19.70;99.90
31046;DHT22;17711;54.018;9.300;2022-10-17T11:38:42;19.80;99.90
31046;DHT22;17711;54.018;9.300;2022-10-17T11:41:18;20.00;99.90
31046;DHT22;17711;54.018;9.300;2022-10-17T11:43:52;20.10;99.90
31046;DHT22;17711;54.018;9.300;2022-10-17T11:46:24;20.30;99.90
31046;DHT22;17711;54.018;9.300;2022-10-17T11:49:04;20.60;99.90
31046;DHT22;17711;54.018;9.300;2022-10-17T11:51:40;20.80;99.90
31046;DHT22;17711;54.018;9.300;2022-10-17T11:54:32;20.70;99.90
31046;DHT22;17711;54.018;9.300;2022-10-17T11:57:10;20.50;99.90
31046;DHT22;17711;54.018;9.300;2022-10-17T12:00:10;20.40;99.90
31046;DHT22;17711;54.018;9.300;2022-10-17T12:02:54;20.40;99.90
31046;DHT22;17711;54.018;9.300;2022-10-17T12:05:33;20.30;99.90
31046;DHT22;17711;54.018;9.300;2022-10-17T12:08:34;20.20;99.90
31046;DHT22;17711;54.018;9.300;2022-10-17T12:11:26;20.00;99.90
31046;DHT22;17711;54.018;9.300;2022-10-17T12:13:57;20.00;99.90
31046;DHT22;17711;54.018;9.300;2022-10-17T12:16:44;19.90;99.90
31046;DHT22;17711;54.018;9.300;2022-10-17T12:19:25;19.80;99.90
31046;DHT22;17711;54.018;9.300;2022-10-17T12:22:04;19.70;99.90
31046;DHT22;17711;54.018;9.300;2022-10-17T12:24:39;19.70;99.90
31046;DHT22;17711;54.018;9.300;2022-10-17T12:27:38;19.50;99.90
31046;DHT22;17711;54.018;9.300;2022-10-17T12:30:20;19.30;99.90
31046;DHT22;17711;54.018;9.300;2022-10-17T12:33:05;19.20;99.90
31046;DHT22;17711;54.018;9.300;2022-10-17T12:45:48;19.20;99.90
31046;DHT22;17711;54.018;9.300;2022-10-17T12:51:27;19.10;99.90
31046;DHT22;17711;54.018;9.300;2022-10-17T12:54:11;19.00;99.90
31046;DHT22;17711;54.018;9.300;2022-10-17T12:56:44;18.90;99.90
31046;DHT22;17711;54.018;9.300;2022-10-17T12:59:20;18.80;99.90
31046;DHT22;17711;54.018;9.300;2022-10-17T13:01:54;18.80;99.90
31046;DHT22;17711;54.018;9.300;2022-10-17T13:04:27;18.70;99.90
31046;DHT22;17711;54.018;9.300;2022-10-17T13:06:59;18.60;99.90
31046;DHT22;17711;54.018;9.300;2022-10-17T13:09:30;18.60;99.90
31046;DHT22;17711;54.018;9.300;2022-10-17T13:12:04;18.60;99.90
31046;DHT22;17711;54.018;9.300;2022-10-17T13:14:39;18.60;99.90
31046;DHT22;17711;54.018;9.300;2022-10-17T13:17:24;18.60;99.90
31046;DHT22;17711;54.018;9.300;2022-10-17T13:19:57;18.60;99.90
31046;DHT22;17711;54.018;9.300;2022-10-17T13:22:28;18.60;99.90
31046;DHT22;17711;54.018;9.300;2022-10-17T13:25:07;18.50;99.90
31046;DHT22;17711;54.018;9.300;2022-10-17T13:27:42;18.50;99.90
31046;DHT22;17711;54.018;9.300;2022-10-17T13:30:25;18.60;99.90
31046;DHT22;17711;54.018;9.300;2022-10-17T13:32:59;18.70;99.90
31046;DHT22;17711;54.018;9.300;2022-10-17T13:35:32;18.70;99.90
31046;DHT22;17711;54.018;9.300;2022-10-17T13:38:25;18.70;99.90
31046;DHT22;17711;54.018;9.300;2022-10-17T13:40:58;18.70;99.90
31046;DHT22;17711;54.018;9.300;2022-10-17T13:43:49;18.60;99.90
31046;DHT22;17711;54.018;9.300;2022-10-17T13:46:29;18.60;99.90
31046;DHT22;17711;54.018;9.300;2022-10-17T13:49:17;18.50;99.90
31046;DHT22;17711;54.018;9.300;2022-10-17T13:51:53;18.50;99.90
31046;DHT22;17711;54.018;9.300;2022-10-17T13:54:35;18.50;99.90
31046;DHT22;17711;54.018;9.300;2022-10-17T13:57:15;18.40;99.90
31046;DHT22;17711;54.018;9.300;2022-10-17T13:59:50;18.40;99.90
31046;DHT22;17711;54.018;9.300;2022-10-17T14:02:27;18.30;99.90
31046;DHT22;17711;54.018;9.300;2022-10-17T14:05:00;18.20;99.90
31046;DHT22;17711;54.018;9.300;2022-10-17T14:07:51;18.20;99.90
31046;DHT22;17711;54.018;9.300;2022-10-17T14:10:41;18.20;99.90
31046;DHT22;17711;54.018;9.300;2022-10-17T14:13:21;18.10;99.90
31046;DHT22;17711;54.018;9.300;2022-10-17T14:15:54;18.10;99.90
31046;DHT22;17711;54.018;9.300;2022-10-17T14:18:30;18.10;99.90
31046;DHT22;17711;54.018;9.300;2022-10-17T14:21:05;18.10;99.90
31046;DHT22;17711;54.018;9.300;2022-10-17T14:24:15;18.10;99.90
31046;DHT22;17711;54.018;9.300;2022-10-17T14:26:52;18.00;99.90
31046;DHT22;17711;54.018;9.300;2022-10-17T14:29:25;18.00;99.90
31046;DHT22;17711;54.018;9.300;2022-10-17T14:32:01;18.00;99.90
31046;DHT22;17711;54.018;9.300;2022-10-17T14:34:44;18.00;99.90
31046;DHT22;17711;54.018;9.300;2022-10-17T14:37:28;17.90;99.90
31046;DHT22;17711;54.018;9.300;2022-10-17T14:40:01;17.90;99.90
31046;DHT22;17711;54.018;9.300;2022-10-17T14:42:38;17.90;99.90
31046;DHT22;17711;54.018;9.300;2022-10-17T14:45:12;17.80;99.90
31046;DHT22;17711;54.018;9.300;2022-10-17T14:47:49;17.80;99.90
31046;DHT22;17711;54.018;9.300;2022-10-17T14:50:33;17.80;99.90
31046;DHT22;17711;54.018;9.300;2022-10-17T14:53:17;17.80;99.90
31046;DHT22;17711;54.018;9.300;2022-10-17T14:55:55;17.80;99.90
31046;DHT22;17711;54.018;9.300;2022-10-17T14:58:27;17.80;99.90
31046;DHT22;17711;54.018;9.300;2022-10-17T15:00:59;17.80;99.90
31046;DHT22;17711;54.018;9.300;2022-10-17T15:03:29;17.80;99.90
31046;DHT22;17711;54.018;9.300;2022-10-17T15:06:11;17.80;99.90
31046;DHT22;17711;54.018;9.300;2022-10-17T15:08:45;17.80;99.90
31046;DHT22;17711;54.018;9.300;2022-10-17T15:11:15;17.80;99.90
31046;DHT22;17711;54.018;9.300;2022-10-17T15:13:45;17.80;99.90
31046;DHT22;17711;54.018;9.300;2022-10-17T15:16:21;17.80;99.90
31046;DHT22;17711;54.018;9.300;2022-10-17T15:18:55;17.80;99.90
31046;DHT22;17711;54.018;9.300;2022-10-17T15:21:28;17.80;99.90
31046;DHT22;17711;54.018;9.300;2022-10-17T15:24:08;17.80;99.90
31046;DHT22;17711;54.018;9.300;2022-10-17T15:26:43;17.80;99.90
31046;DHT22;17711;54.018;9.300;2022-10-17T15:29:14;17.80;99.90
31046;DHT22;17711;54.018;9.300;2022-10-17T15:31:45;17.80;99.90
31046;DHT22;17711;54.018;9.300;2022-10-17T15:34:15;17.70;99.90
31046;DHT22;17711;54.018;9.300;2022-10-17T15:36:51;17.70;99.90
31046;DHT22;17711;54.018;9.300;2022-10-17T15:39:27;17.70;99.90
31046;DHT22;17711;54.018;9.300;2022-10-17T15:41:57;17.70;99.90
31046;DHT22;17711;54.018;9.300;2022-10-17T15:44:30;17.70;99.90
31046;DHT22;17711;54.018;9.300;2022-10-17T15:47:01;17.60;99.90
31046;DHT22;17711;54.018;9.300;2022-10-17T15:49:31;17.60;99.90
31046;DHT22;17711;54.018;9.300;2022-10-17T15:52:03;17.60;99.90
31046;DHT22;17711;54.018;9.300;2022-10-17T15:54:35;17.60;99.90
31046;DHT22;17711;54.018;9.300;2022-10-17T15:57:04;17.60;99.90
31046;DHT22;17711;54.018;9.300;2022-10-17T15:59:34;17.70;99.90
31046;DHT22;17711;54.018;9.300;2022-10-17T16:02:07;17.70;99.90
31046;DHT22;17711;54.018;9.300;2022-10-17T16:04:38;17.70;99.90
31046;DHT22;17711;54.018;9.300;2022-10-17T16:07:09;17.70;99.90
31046;DHT22;17711;54.018;9.300;2022-10-17T16:09:40;17.60;99.90
31046;DHT22;17711;54.018;9.300;2022-10-17T16:12:13;17.60;99.90
31046;DHT22;17711;54.018;9.300;2022-10-17T16:14:47;17.60;99.90
31046;DHT22;17711;54.018;9.300;2022-10-17T16:17:16;17.60;99.90
31046;DHT22;17711;54.018;9.300;2022-10-17T16:19:46;17.50;99.90
31046;DHT22;17711;54.018;9.300;2022-10-17T16:22:25;17.50;99.90
31046;DHT22;17711;54.018;9.300;2022-10-17T16:24:57;17.50;99.90
31046;DHT22;17711;54.018;9.300;2022-10-17T16:27:36;17.50;99.90
31046;DHT22;17711;54.018;9.300;2022-10-17T16:30:08;17.50;99.90
31046;DHT22;17711;54.018;9.300;2022-10-17T16:32:38;17.50;99.90
31046;DHT22;17711;54.018;9.300;2022-10-17T16:35:11;17.50;99.90
31046;DHT22;17711;54.018;9.300;2022-10-17T16:37:47;17.50;99.90
31046;DHT22;17711;54.018;9.300;2022-10-17T16:40:18;17.40;99.90
31046;DHT22;17711;54.018;9.300;2022-10-17T16:42:48;17.30;99.90
31046;DHT22;17711;54.018;9.300;2022-10-17T16:45:23;17.30;99.90